EST,Max TemperatureF,Mean TemperatureF,Min TemperatureF,Max Dew PointF,MeanDew PointF,Min DewpointF,Max Humidity, Mean Humidity, Min Humidity, Max Sea Level PressureIn, Mean Sea Level PressureIn, Min Sea Level PressureIn, Max VisibilityMiles, Mean VisibilityMiles, Min VisibilityMiles, Max Wind SpeedMPH, Mean Wind SpeedMPH, Max Gust SpeedMPH,PrecipitationIn, CloudCover, Events, WindDirDegrees
2012-2-1,57,52,46,43,40,36,80,63,55,30.03,29.93,29.86,,,,14,9,23,0.03,,,230
2012-2-2,45,41,35,36,32,30,92,70,60,30.18,30.04,29.99,,,,10,7,20,0.02,,,4
2012-2-3,41,36,30,26,19,13,64,50,34,30.41,30.34,30.21,,,,15,11,26,0.00,,,317
2012-2-4,44,40,36,30,26,22,65,55,47,30.32,30.21,30.12,,,,10,7,18,0.00,,,291
2012-2-5,36,33,30,21,15,7,57,48,31,30.17,30.14,30.11,,,,10,7,18,0.00,,,339
2012-2-6,46,40,33,36,28,18,71,61,52,30.14,30.04,29.96,,,,16,9,24,0.00,,,240
2012-2-7,48,42,37,33,29,23,77,58,47,30.23,30.05,29.94,,,,15,7,23,0.00,,,295
2012-2-8,37,34,32,31,21,17,89,59,46,30.34,30.23,30.08,,,,9,6,,0.02,,,11
2012-2-9,43,38,34,31,24,21,89,58,45,30.14,30.07,30.03,,,,13,7,18,0.00,,,288
2012-2-10,46,38,30,39,32,25,86,70,46,30.14,30.06,29.93,,,,13,5,23,0.06,,,224
2012-2-11,39,36,34,34,30,21,92,77,52,29.92,29.68,29.52,,,,16,9,26,0.10,,,351
2012-2-12,33,27,21,19,11,5,56,49,42,29.95,29.76,29.57,,,,23,19,33,0.00,,,307
2012-2-13,41,34,26,22,18,10,61,51,40,30.03,29.96,29.91,,,,15,11,28,0.00,,,243
2012-2-14,44,38,32,39,28,20,86,64,41,30.14,30.09,30.04,,,,7,3,,0.00,,,236
2012-2-15,46,42,39,42,38,30,93,81,62,30.26,30.17,30.11,,,,12,3,,0.01,,,296
2012-2-16,43,40,37,40,33,29,89,74,65,30.30,30.21,30.07,,,,9,4,,0.06,,,316
2012-2-17,48,44,41,44,38,27,97,79,51,30.06,29.96,29.88,,,,14,5,20,0.01,,,268
2012-2-18,45,41,37,35,27,22,86,59,42,30.06,29.99,29.93,,,,15,11,24,0.01,,,269
2012-2-19,43,36,28,35,27,22,83,65,45,30.06,30.02,29.96,,,,13,8,18,0.00,,,324
2012-2-20,44,38,32,27,17,13,67,45,30,30.33,30.13,29.96,,,,17,13,29,0.00,,,351
2012-2-21,44,38,33,42,26,16,97,59,44,30.35,30.22,29.88,,,,12,7,22,0.15,,,210
2012-2-22,54,48,42,44,39,31,93,74,41,29.86,29.70,29.57,,,,12,6,20,0.00,,,215
2012-2-23,55,50,37,46,38,27,90,67,41,29.82,29.55,29.40,,,,16,9,26,0.01,,,259
2012-2-24,48,42,35,48,38,28,97,85,53,29.79,29.59,29.25,,,,13,6,21,0.57,,,72
2012-2-25,45,41,35,37,25,20,80,52,39,29.92,29.56,29.35,,,,23,19,39,0.00,,,263
2012-2-26,41,36,30,23,15,8,69,43,26,30.46,30.30,29.95,,,,18,13,33,0.00,,,281
2012-2-27,48,36,24,39,33,19,84,70,61,30.46,30.27,30.06,,,,14,6,29,0.00,,,210
2012-2-28,48,45,41,36,26,23,63,50,39,30.40,30.29,30.06,,,,18,10,30,0.00,,,310
2012-2-29,46,42,39,41,34,24,96,75,52,30.36,30.11,29.81,,,,14,6,33,0.20,,,76